21:15
Airports
History
Links
Donate
Help keep this website running!
PayPal
Bitcoin
This page is community maintained. The information is intended for PC simulator navigation or reference.
Always use approved charts for navigation.
VEIM
IMPHAL
IMPHAL (VEIM)
Imphal, Manipur, India (795140)
(C)
Lat/Lng:24° 45' 35.83" N / 93° 53' 48.12" E
24.759952 / 93.896699
Elevation:2540'ft / 774mMSL
ID / ICAO:VEIM
Runways:1
Longest:04-22
Asphalt 2,752m / 9,029ft
Controlled:Yes
METAR09:00 GMT 2017-11-19
Altimeter: 29.88
Visibility: 3.1 statute miles
Wind: 4 knots (from 140°)
Temp: 27°c / 81°f
Humidity: 69.8%

METAR: VEIM 190900Z 14004KT 5000 HZ SCT018 BKN100 27/21 Q1012 NOSIG

(Powered by phpweather)
Airport Radio Frequencies
Tower: 123.5
Nearby VORs <50NM
Nearby NDBs
Runway 04 / 22
Dimensions:2752 x 45.1m 9029' x 148'ft
Surface:Asphalt
Edge Lights:High intensity
Runway 04 [A]Runway 22 [B]
Heading:034°TH 214°TH
Lat:
Lng:
24° 44' 59.15"N
93° 53' 20.37"E
24° 46' 12.5"N
93° 54' 15.86"E
ALS:SALS
TDZ:Yes, lighted
User Notes and Comments
24° 45' 35.83" N / 93° 53' 48.12" E
Distance To
Airport ID:
Nearby Airports
(C) SILCHAR 58.5 NM
VEKU W 280°
(U) HOMMALINN 64.5 NM
VYHL E 81°
(C) DIMAPUR 78.0 NM
VEMR N 354°
(C) AIZAWL 98.2 NM
VEAZ SW 224°
(C) LENGPUI 102.5 NM
VELP SW 231°
(C) KALAY 109.0 NM
VYKL S 174°
(C) KAILASHAHAR 122.8 NM
VEKR WSW 255°
VFR Chart
Flight Planning at SkyVector.com